Time;durP1;ratioP1;P1;durP2;ratioP2;P2;SDS_P1;SDS_P2;PMS_P1;PMS_P2;Temp;Humidity;BMP_temperature;BMP_pressure;BME280_temperature;BME280_humidity;BME280_pressure;Samples;Min_cycle;Max_cycle;Signal;HPM_P1;HPM_P2
2024/01/08 00:01:50;;;;;;;20.85;8.80;;;;;;;-0.41;100.00;102890.56;5268644;28;20043;-72
2024/01/08 00:04:21;;;;;;;21.58;9.50;;;;;;;-0.50;100.00;102893.47;5276064;28;20108;-72
2024/01/08 00:06:54;;;;;;;19.98;8.52;;;;;;;-0.47;100.00;102881.06;5274043;28;20498;-72
2024/01/08 00:09:27;;;;;;;18.50;8.32;;;;;;;-0.55;100.00;102893.63;5273576;28;20062;-72
2024/01/08 00:11:58;;;;;;;19.23;8.57;;;;;;;-0.48;100.00;102875.84;5269285;28;20032;-72
2024/01/08 00:14:30;;;;;;;23.42;9.82;;;;;;;-0.44;100.00;102890.69;5272347;28;20028;-72
2024/01/08 00:17:07;;;;;;;;;;;;;;;-0.46;100.00;102885.44;5271994;28;20032;-72
2024/01/08 00:19:43;;;;;;;19.80;7.15;;;;;;;-0.62;100.00;102892.94;5275839;28;20006;-72
2024/01/08 00:22:17;;;;;;;12.88;6.32;;;;;;;-0.60;100.00;102895.53;5278416;28;20039;-72
2024/01/08 00:24:47;;;;;;;20.50;7.38;;;;;;;-0.59;100.00;102892.00;5267890;28;20028;-72
2024/01/08 00:27:24;;;;;;;17.20;6.80;;;;;;;-0.49;100.00;102898.72;5272821;28;20024;-72
2024/01/08 00:29:55;;;;;;;23.02;7.28;;;;;;;-0.45;100.00;102878.38;5270575;28;20034;-72
2024/01/08 00:32:31;;;;;;;16.55;7.53;;;;;;;-0.56;100.00;102897.16;5270202;28;20437;-72
2024/01/08 00:35:04;;;;;;;14.10;6.55;;;;;;;-0.51;100.00;102892.63;5270893;28;20032;-72
2024/01/08 00:37:39;;;;;;;17.70;6.53;;;;;;;-0.57;100.00;102893.66;5276605;28;20027;-72
2024/01/08 00:40:11;;;;;;;14.48;6.55;;;;;;;-0.53;100.00;102900.59;5271936;28;20478;-73
2024/01/08 00:42:42;;;;;;;17.67;7.07;;;;;;;-0.56;100.00;102897.16;5275183;28;20024;-72
2024/01/08 00:45:18;;;;;;;12.05;6.15;;;;;;;-0.56;100.00;102890.13;5271571;28;20566;-72
2024/01/08 00:47:49;;;;;;;12.25;6.35;;;;;;;-0.44;100.00;102899.47;5268695;28;20027;-72
2024/01/08 00:50:26;;;;;;;11.73;5.88;;;;;;;-0.41;100.00;102891.44;5272920;28;20042;-73
2024/01/08 00:52:57;;;;;;;10.77;5.85;;;;;;;-0.43;100.00;102895.91;5272647;28;20028;-73
2024/01/08 00:55:28;;;;;;;13.82;7.13;;;;;;;-0.44;100.00;102894.19;5276692;28;20016;-73
2024/01/08 00:58:02;;;;;;;11.68;6.00;;;;;;;-0.43;100.00;102900.31;5267950;28;20099;-74
2024/01/08 01:00:35;;;;;;;14.55;6.75;;;;;;;-0.38;100.00;102899.28;5276172;28;20065;-73
2024/01/08 01:03:13;;;;;;;12.07;6.80;;;;;;;-0.42;100.00;102894.13;5276141;28;20023;-73
2024/01/08 01:05:44;;;;;;;18.60;7.65;;;;;;;-0.44;100.00;102895.97;5272659;28;20035;-73
2024/01/08 01:08:18;;;;;;;15.70;6.82;;;;;;;-0.59;100.00;102899.91;5275207;28;20031;-72
2024/01/08 01:10:54;;;;;;;13.75;7.10;;;;;;;-0.61;100.00;102891.16;5268259;28;20674;-73
2024/01/08 01:13:28;;;;;;;15.73;7.20;;;;;;;-0.57;100.00;102896.31;5277570;28;20020;-73
2024/01/08 01:15:59;;;;;;;15.55;6.43;;;;;;;-0.62;100.00;102897.34;5272814;28;20068;-73
2024/01/08 01:18:32;;;;;;;14.15;6.95;;;;;;;-0.55;100.00;102907.69;5273567;28;20072;-73
2024/01/08 01:21:06;;;;;;;16.92;7.57;;;;;;;-0.47;100.00;102911.84;5274054;28;20020;-73
2024/01/08 01:23:40;;;;;;;14.18;6.10;;;;;;;-0.52;100.00;102907.56;5274413;28;20080;-72
2024/01/08 01:26:13;;;;;;;15.48;6.75;;;;;;;-0.62;100.00;102905.25;5277253;28;20122;-73
2024/01/08 01:28:55;;;;;;;14.38;6.68;;;;;;;-0.61;100.00;102913.09;5272960;28;20634;-73
2024/01/08 01:31:26;;;;;;;14.05;6.68;;;;;;;-0.66;100.00;102908.88;5272594;28;20028;-73
2024/01/08 01:33:57;;;;;;;15.82;7.25;;;;;;;-0.83;100.00;102918.13;5271321;27;20024;-73
2024/01/08 01:36:29;;;;;;;17.95;7.25;;;;;;;-0.81;100.00;102918.94;5274260;28;20028;-73
2024/01/08 01:39:01;;;;;;;20.90;8.00;;;;;;;-0.82;100.00;102922.50;5272630;28;20020;-73
2024/01/08 01:41:37;;;;;;;16.08;7.50;;;;;;;-0.79;100.00;102918.91;5272013;28;20039;-72
2024/01/08 01:44:09;;;;;;;14.38;7.00;;;;;;;-0.90;100.00;102919.22;5276647;28;20032;-73
2024/01/08 01:46:45;;;;;;;12.53;5.67;;;;;;;-0.97;100.00;102924.69;5272985;27;20035;-73
2024/01/08 01:49:20;;;;;;;16.17;6.95;;;;;;;-0.90;100.00;102931.53;5274369;28;20046;-73
2024/01/08 01:52:00;;;;;;;13.07;6.10;;;;;;;-0.96;100.00;102923.78;5281810;27;20020;-72
2024/01/08 01:54:34;;;;;;;12.82;6.63;;;;;;;-0.91;100.00;102920.09;5274017;28;20016;-73
2024/01/08 01:57:13;;;;;;;13.15;7.03;;;;;;;-0.84;100.00;102912.91;5270756;28;20362;-73
2024/01/08 01:59:47;;;;;;;11.93;5.78;;;;;;;-0.93;100.00;102916.66;5276744;28;20022;-72
2024/01/08 02:02:24;;;;;;;15.02;7.78;;;;;;;-0.86;100.00;102918.22;5278889;28;20020;-72
2024/01/08 02:04:57;;;;;;;;;;;;;;;-0.83;100.00;102918.13;5271848;28;20032;-73
2024/01/08 02:07:40;;;;;;;14.32;6.88;;;;;;;-0.77;100.00;102921.50;5278189;28;19930;-73
2024/01/08 02:10:11;;;;;;;19.35;7.18;;;;;;;-0.72;100.00;102912.56;5268835;28;20052;-72
2024/01/08 02:12:45;;;;;;;12.43;6.55;;;;;;;-0.68;100.00;102916.84;5275501;28;20116;-73
2024/01/08 02:15:15;;;;;;;16.85;6.95;;;;;;;-0.69;100.00;102909.84;5273284;28;20012;-72
2024/01/08 02:17:47;;;;;;;15.40;6.90;;;;;;;-0.64;100.00;102912.34;5266859;28;20058;-72
2024/01/08 02:20:18;;;;;;;16.88;7.40;;;;;;;-0.73;100.00;102921.38;5270159;28;20024;-72
2024/01/08 02:22:52;;;;;;;15.93;7.55;;;;;;;-0.79;100.00;102911.88;5275988;28;20503;-73
2024/01/08 02:25:26;;;;;;;16.60;7.20;;;;;;;-0.73;100.00;102907.34;5270734;28;20024;-73
2024/01/08 02:28:06;;;;;;;20.83;8.07;;;;;;;-0.72;100.00;102909.91;5274139;28;20039;-73
2024/01/08 02:30:39;;;;;;;16.73;8.35;;;;;;;-0.69;100.00;102911.63;5275983;28;20030;-73
2024/01/08 02:33:13;;;;;;;15.70;7.95;;;;;;;-0.76;100.00;102910.06;5273607;28;20032;-73
2024/01/08 02:35:49;;;;;;;18.80;9.23;;;;;;;-0.74;100.00;102906.47;5276364;27;20031;-73
2024/01/08 02:38:20;;;;;;;20.65;9.45;;;;;;;-0.82;100.00;102911.94;5278878;28;20588;-72
2024/01/08 02:40:51;;;;;;;16.63;8.27;;;;;;;-0.74;100.00;102910.88;5271919;28;20030;-73
2024/01/08 02:43:22;;;;;;;19.35;8.95;;;;;;;-0.85;100.00;102911.19;5271495;28;20111;-73
2024/01/08 02:45:53;;;;;;;19.05;8.38;;;;;;;-0.94;100.00;102922.84;5275306;28;20011;-73
2024/01/08 02:48:31;;;;;;;17.73;8.75;;;;;;;-0.86;100.00;102919.97;5268667;28;20027;-72
2024/01/08 02:51:13;;;;;;;20.95;9.15;;;;;;;-0.91;100.00;102913.97;5268957;27;20024;-73
2024/01/08 02:53:49;;;;;;;22.05;8.60;;;;;;;-0.89;100.00;102912.19;5273965;28;20020;-72
2024/01/08 02:56:21;;;;;;;18.95;9.02;;;;;;;-0.96;100.00;102918.50;5266438;28;20028;-73
2024/01/08 02:58:58;;;;;;;;;;;;;;;-0.90;100.00;102919.22;5274443;27;20579;-73
2024/01/08 03:01:41;;;;;;;24.95;9.70;;;;;;;-0.77;100.00;102929.41;5275748;27;19912;-72
2024/01/08 03:04:15;;;;;;;23.58;9.10;;;;;;;-0.74;100.00;102922.28;5274299;27;20069;-73
2024/01/08 03:06:45;;;;;;;21.70;10.18;;;;;;;-0.71;100.00;102918.69;5273470;28;20472;-73
2024/01/08 03:09:16;;;;;;;19.88;8.18;;;;;;;-0.89;100.00;102918.31;5272529;28;20031;-72
2024/01/08 03:11:47;;;;;;;18.10;8.40;;;;;;;-0.84;100.00;102916.41;5271598;28;20026;-73
2024/01/08 03:14:25;;;;;;;19.05;8.07;;;;;;;-0.85;100.00;102925.22;5271519;28;20098;-72
2024/01/08 03:16:56;;;;;;;14.82;7.32;;;;;;;-0.84;100.00;102932.22;5272927;28;20119;-72
2024/01/08 03:19:27;;;;;;;14.32;6.38;;;;;;;-0.76;100.00;102928.50;5271278;28;20391;-73
2024/01/08 03:22:00;;;;;;;14.80;6.93;;;;;;;-0.72;100.00;102932.78;5269260;28;20030;-72
2024/01/08 03:24:36;;;;;;;11.68;6.35;;;;;;;-0.71;100.00;102932.72;5272317;28;20028;-72
2024/01/08 03:27:07;;;;;;;12.88;6.70;;;;;;;-0.79;100.00;102934.72;5270659;28;20419;-73
2024/01/08 03:29:38;;;;;;;13.63;6.53;;;;;;;-0.83;100.00;102944.50;5273034;28;20024;-73
2024/01/08 03:32:09;;;;;;;10.27;4.90;;;;;;;-0.99;100.00;102939.69;5270307;28;20020;-72
2024/01/08 03:34:42;;;;;;;11.55;5.90;;;;;;;-0.90;100.00;102948.22;5275057;28;20024;-73
2024/01/08 03:37:13;;;;;;;12.50;5.82;;;;;;;-0.87;100.00;102950.75;5270712;28;20028;-73
2024/01/08 03:39:44;;;;;;;10.65;5.93;;;;;;;-0.90;100.00;102956.13;5271051;28;20031;-73
2024/01/08 03:42:14;;;;;;;13.70;5.68;;;;;;;-0.89;100.00;102959.59;5268441;28;20024;-73
2024/01/08 03:44:45;;;;;;;11.90;5.30;;;;;;;-0.86;100.00;102952.47;5270197;28;20493;-72
2024/01/08 03:47:16;;;;;;;12.65;5.25;;;;;;;-0.87;100.00;102953.38;5271219;28;20735;-73
2024/01/08 03:49:46;;;;;;;11.48;5.90;;;;;;;-0.88;100.00;102943.75;5271463;28;20051;-72
2024/01/08 03:52:17;;;;;;;9.20;5.18;;;;;;;-0.94;100.00;102950.97;5269544;28;20022;-72
2024/01/08 03:54:47;;;;;;;10.27;5.53;;;;;;;-0.83;100.00;102951.53;5274670;28;20080;-72
2024/01/08 03:57:18;;;;;;;11.25;5.30;;;;;;;-0.87;100.00;102956.00;5270243;28;20398;-73
2024/01/08 03:59:48;;;;;;;10.55;5.50;;;;;;;-0.85;100.00;102948.94;5273157;28;20023;-72
2024/01/08 04:02:19;;;;;;;10.80;5.15;;;;;;;-0.93;100.00;102956.19;5274736;28;20054;-72
2024/01/08 04:04:49;;;;;;;10.60;5.75;;;;;;;-0.96;100.00;102965.94;5269364;28;20012;-73
2024/01/08 04:07:20;;;;;;;10.10;5.53;;;;;;;-0.89;100.00;102963.09;5269027;28;20036;-73
2024/01/08 04:09:50;;;;;;;9.70;5.32;;;;;;;-0.87;100.00;102952.50;5271099;28;20473;-73
2024/01/08 04:12:21;;;;;;;12.13;5.70;;;;;;;-0.75;100.00;102956.56;5269776;28;20016;-73
2024/01/08 04:14:51;;;;;;;14.85;6.35;;;;;;;-0.85;100.00;102951.59;5271080;28;20019;-73
2024/01/08 04:17:22;;;;;;;12.05;5.90;;;;;;;-0.81;100.00;102955.84;5269737;28;20023;-73
2024/01/08 04:19:52;;;;;;;13.40;5.85;;;;;;;-0.75;100.00;102956.56;5272892;28;20028;-73
2024/01/08 04:22:23;;;;;;;11.23;6.30;;;;;;;-0.75;100.00;102953.94;5270622;28;20088;-73
2024/01/08 04:24:53;;;;;;;13.57;5.68;;;;;;;-0.90;100.00;102958.75;5274600;28;20059;-73
2024/01/08 04:27:24;;;;;;;13.85;6.57;;;;;;;-0.93;100.00;102953.56;5272710;28;20016;-73
2024/01/08 04:29:54;;;;;;;15.25;7.10;;;;;;;-1.13;100.00;102955.84;5272931;28;20020;-73
2024/01/08 04:32:24;;;;;;;12.95;6.93;;;;;;;-1.14;100.00;102967.28;5270937;28;20354;-73
2024/01/08 04:34:55;;;;;;;11.38;6.38;;;;;;;-1.13;100.00;102976.91;5273986;28;20032;-73
2024/01/08 04:37:26;;;;;;;15.80;6.40;;;;;;;-1.38;100.00;102961.72;5273862;28;20017;-73
2024/01/08 04:39:57;;;;;;;11.88;6.60;;;;;;;-1.41;100.00;102984.63;5274395;28;20020;-73
2024/01/08 04:42:27;;;;;;;11.80;6.18;;;;;;;-1.50;100.00;102972.56;5275171;28;20466;-72
2024/01/08 04:44:58;;;;;;;12.40;6.22;;;;;;;-1.50;100.00;102969.94;5273193;28;20016;-73
2024/01/08 04:47:28;;;;;;;10.02;5.63;;;;;;;-1.54;100.00;102964.78;5271787;28;20019;-72
2024/01/08 04:49:59;;;;;;;11.68;6.35;;;;;;;-1.52;100.00;102969.09;5276543;28;20028;-73
2024/01/08 04:52:29;;;;;;;14.05;5.90;;;;;;;-1.49;100.00;102963.75;5276673;28;20385;-73
2024/01/08 04:55:00;;;;;;;10.95;5.55;;;;;;;-1.57;100.00;102963.06;5273240;28;20039;-72
2024/01/08 04:57:30;;;;;;;16.05;6.53;;;;;;;-1.59;100.00;102965.75;5270670;28;20089;-73
2024/01/08 05:00:01;;;;;;;12.98;6.38;;;;;;;-1.58;100.00;102959.56;5273659;27;20587;-73
2024/01/08 05:02:31;;;;;;;14.77;7.03;;;;;;;-1.62;100.00;102963.16;5273684;28;20039;-73
2024/01/08 05:05:04;;;;;;;13.50;5.63;;;;;;;-1.54;100.00;102963.00;5271099;28;20020;-73
2024/01/08 05:07:35;;;;;;;18.63;7.18;;;;;;;-1.53;100.00;102967.34;5277048;28;20027;-73
2024/01/08 05:10:06;;;;;;;13.38;6.43;;;;;;;-1.43;100.00;102963.59;5272694;28;20016;-73
2024/01/08 05:12:37;;;;;;;11.48;5.47;;;;;;;-1.42;100.00;102952.16;5273164;28;20135;-73
2024/01/08 05:15:08;;;;;;;11.05;5.75;;;;;;;-1.48;100.00;102943.56;5273141;28;20012;-73
2024/01/08 05:17:38;;;;;;;12.70;6.20;;;;;;;-1.37;100.00;102945.00;5275864;28;20043;-73
2024/01/08 05:20:10;;;;;;;13.75;5.93;;;;;;;-1.34;100.00;102958.13;5274030;28;20027;-73
2024/01/08 05:22:40;;;;;;;14.15;5.60;;;;;;;-1.34;100.00;102958.13;5274044;28;20030;-72
2024/01/08 05:25:11;;;;;;;12.25;5.82;;;;;;;-1.35;100.00;102951.13;5274593;28;20457;-74
2024/01/08 05:27:41;;;;;;;11.60;5.93;;;;;;;-1.29;100.00;102958.00;5275917;28;20047;-72
2024/01/08 05:30:12;;;;;;;10.25;5.57;;;;;;;-1.26;100.00;102960.53;5271883;28;20032;-72
2024/01/08 05:32:42;;;;;;;14.35;5.45;;;;;;;-1.22;100.00;102962.19;5271456;28;20028;-72
2024/01/08 05:35:13;;;;;;;14.10;6.25;;;;;;;-1.18;100.00;102958.59;5273779;28;20020;-72
2024/01/08 05:37:43;;;;;;;12.13;5.68;;;;;;;-1.21;100.00;102953.38;5273601;28;20043;-73
2024/01/08 05:40:14;;;;;;;13.63;6.03;;;;;;;-1.16;100.00;102942.75;5272297;28;20016;-73
2024/01/08 05:42:45;;;;;;;14.98;6.50;;;;;;;-1.17;100.00;102954.19;5272356;27;20020;-73
2024/01/08 05:45:15;;;;;;;12.45;5.78;;;;;;;-1.14;100.00;102947.06;5269937;28;20020;-73
2024/01/08 05:47:47;;;;;;;12.18;5.93;;;;;;;-1.17;100.00;102943.66;5273871;28;20069;-72
2024/01/08 05:50:18;;;;;;;14.25;5.65;;;;;;;-1.16;100.00;102945.38;5270491;28;20020;-73
2024/01/08 05:52:48;;;;;;;12.65;6.32;;;;;;;-1.14;100.00;102947.06;5272174;28;20492;-73
2024/01/08 05:55:19;;;;;;;14.52;6.15;;;;;;;-1.14;100.00;102946.22;5274462;28;20019;-73
2024/01/08 05:57:50;;;;;;;12.82;5.82;;;;;;;-1.14;100.00;102948.84;5273071;28;20016;-73
2024/01/08 06:00:21;;;;;;;12.27;5.93;;;;;;;-1.15;100.00;102942.72;5271479;28;20397;-73
2024/01/08 06:02:52;;;;;;;13.80;6.22;;;;;;;-1.17;100.00;102944.50;5271981;28;20080;-73
2024/01/08 06:05:23;;;;;;;18.15;6.30;;;;;;;-1.14;100.00;102943.59;5269559;28;20019;-73
2024/01/08 06:07:53;;;;;;;13.10;6.45;;;;;;;-1.12;100.00;102944.41;5272903;28;20033;-73
2024/01/08 06:10:24;;;;;;;13.32;5.82;;;;;;;-1.18;100.00;102945.41;5272377;28;20024;-73
2024/01/08 06:12:54;;;;;;;15.55;6.13;;;;;;;-1.17;100.00;102938.38;5271136;28;20024;-73
2024/01/08 06:15:25;;;;;;;10.48;5.60;;;;;;;-1.16;100.00;102948.00;5276088;28;20030;-72
2024/01/08 06:17:55;;;;;;;12.00;5.95;;;;;;;-1.15;100.00;102939.22;5271295;28;20028;-73
2024/01/08 06:20:26;;;;;;;12.52;6.13;;;;;;;-1.13;100.00;102942.66;5272092;28;20019;-73
2024/01/08 06:22:56;;;;;;;12.82;5.43;;;;;;;-1.09;100.00;102945.19;5273243;28;20020;-73
2024/01/08 06:25:27;;;;;;;13.10;5.97;;;;;;;-1.11;100.00;102951.38;5270932;28;20012;-73
2024/01/08 06:27:57;;;;;;;15.35;6.03;;;;;;;-1.13;100.00;102950.56;5274886;28;20473;-72
2024/01/08 06:30:28;;;;;;;12.77;5.85;;;;;;;-1.11;100.00;102952.25;5271530;28;20050;-73
2024/01/08 06:32:58;;;;;;;14.65;6.03;;;;;;;-1.11;100.00;102949.59;5271814;28;20024;-73
2024/01/08 06:35:29;;;;;;;14.43;5.93;;;;;;;-1.16;100.00;102948.88;5273409;28;20072;-73
2024/01/08 06:38:00;;;;;;;14.48;6.05;;;;;;;-1.12;100.00;102947.88;5270997;28;20020;-72
2024/01/08 06:40:31;;;;;;;15.18;6.78;;;;;;;-1.15;100.00;102950.63;5273340;28;20163;-73
2024/01/08 06:43:01;;;;;;;19.65;6.85;;;;;;;-1.07;100.00;102953.91;5272410;28;20020;-73
2024/01/08 06:45:32;;;;;;;13.93;6.03;;;;;;;-1.14;100.00;102946.22;5273103;28;20389;-72
2024/01/08 06:48:02;;;;;;;11.10;5.45;;;;;;;-1.14;100.00;102944.44;5270488;28;20030;-73
2024/01/08 06:50:33;;;;;;;16.40;6.65;;;;;;;-1.18;100.00;102940.16;5271286;28;20485;-73
2024/01/08 06:53:03;;;;;;;15.15;6.72;;;;;;;-1.16;100.00;102942.75;5262103;28;20079;-73
2024/01/08 06:55:34;;;;;;;12.77;6.10;;;;;;;-1.13;100.00;102946.16;5265332;28;20046;-73
2024/01/08 06:58:04;;;;;;;17.30;6.53;;;;;;;-1.16;100.00;102940.97;5267320;28;20020;-73
2024/01/08 07:00:35;;;;;;;17.73;7.00;;;;;;;-1.15;100.00;102939.22;5268363;28;20030;-72
2024/01/08 07:03:05;;;;;;;15.65;6.07;;;;;;;-1.11;100.00;102938.22;5272669;28;20028;-73
2024/01/08 07:05:36;;;;;;;14.70;6.80;;;;;;;-1.16;100.00;102940.09;5272935;28;20130;-72
2024/01/08 07:08:07;;;;;;;14.35;6.68;;;;;;;-1.17;100.00;102939.25;5272560;28;20081;-73
2024/01/08 07:10:37;;;;;;;13.23;6.38;;;;;;;-1.17;100.00;102933.97;5270050;28;20015;-73
2024/01/08 07:13:08;;;;;;;13.73;5.80;;;;;;;-1.18;100.00;102941.94;5268628;28;20084;-72
2024/01/08 07:15:40;;;;;;;20.00;6.70;;;;;;;-1.09;100.00;102954.88;5272333;28;20053;-73
2024/01/08 07:18:11;;;;;;;19.95;7.85;;;;;;;-1.11;100.00;102951.38;5268856;28;20023;-73
2024/01/08 07:20:42;;;;;;;14.90;6.47;;;;;;;-1.09;100.00;102949.59;5274565;28;20015;-73
2024/01/08 07:23:13;;;;;;;17.95;6.80;;;;;;;-1.09;100.00;102954.88;5267734;28;20394;-73
2024/01/08 07:25:43;;;;;;;16.40;7.38;;;;;;;-1.11;100.00;102954.88;5271675;28;20051;-72
2024/01/08 07:28:15;;;;;;;13.65;7.15;;;;;;;-1.14;100.00;102962.88;5269097;28;20610;-73
2024/01/08 07:30:46;;;;;;;18.25;7.10;;;;;;;-1.17;100.00;102960.31;5269621;28;20427;-72
2024/01/08 07:33:16;;;;;;;18.42;6.82;;;;;;;-1.08;100.00;102960.09;5269527;28;20023;-73
2024/01/08 07:35:47;;;;;;;19.92;8.05;;;;;;;-1.02;100.00;102964.31;5272941;28;20396;-72
2024/01/08 07:38:20;;;;;;;16.02;7.32;;;;;;;-1.01;100.00;102965.19;5268999;28;20149;-73
2024/01/08 07:40:50;;;;;;;17.05;7.10;;;;;;;-1.08;100.00;102967.13;5271588;28;20629;-72
2024/01/08 07:43:21;;;;;;;17.85;7.10;;;;;;;-1.03;100.00;102969.66;5270313;28;20028;-73
2024/01/08 07:45:52;;;;;;;14.02;7.03;;;;;;;-1.02;100.00;102981.91;5271314;28;20023;-73
2024/01/08 07:48:23;;;;;;;17.42;7.40;;;;;;;-1.01;100.00;102979.22;5271488;28;20024;-73
2024/01/08 07:50:55;;;;;;;17.27;7.68;;;;;;;-0.97;100.00;102980.00;5269754;28;20020;-73
2024/01/08 07:53:25;;;;;;;22.75;7.72;;;;;;;-1.03;100.00;102982.81;5271754;28;20431;-73
2024/01/08 07:55:56;;;;;;;19.77;7.30;;;;;;;-0.98;100.00;102986.19;5255214;28;20039;-73
2024/01/08 07:58:26;;;;;;;18.33;7.82;;;;;;;-1.02;100.00;102989.81;5260744;28;20747;-73
2024/01/08 08:00:57;;;;;;;17.15;7.30;;;;;;;-0.98;100.00;102989.69;5268520;28;20028;-72
2024/01/08 08:03:28;;;;;;;16.70;6.82;;;;;;;-1.04;100.00;102989.84;5269971;28;20393;-72
2024/01/08 08:05:59;;;;;;;19.13;8.05;;;;;;;-0.89;100.00;103004.41;5267723;28;20068;-73
2024/01/08 08:08:31;;;;;;;17.40;7.78;;;;;;;-0.90;100.00;103000.91;5268219;28;20469;-72
2024/01/08 08:11:03;;;;;;;19.88;8.20;;;;;;;-0.96;100.00;102993.13;5266960;28;20084;-72
2024/01/08 08:13:34;;;;;;;16.70;8.63;;;;;;;-0.90;100.00;102997.41;5269761;28;20023;-73
2024/01/08 08:16:05;;;;;;;18.02;8.30;;;;;;;-0.86;100.00;102999.91;5267079;28;20077;-73
2024/01/08 08:18:35;;;;;;;16.65;8.07;;;;;;;-0.88;100.00;102999.09;5268006;28;20040;-73
2024/01/08 08:21:06;;;;;;;19.65;8.55;;;;;;;-0.91;100.00;102999.16;5267346;28;20054;-73
2024/01/08 08:23:36;;;;;;;20.73;8.13;;;;;;;-0.93;100.00;103002.75;5269653;28;20076;-73
2024/01/08 08:26:07;;;;;;;17.23;8.18;;;;;;;-0.84;100.00;102998.09;5265523;28;20081;-73
2024/01/08 08:28:37;;;;;;;16.50;7.50;;;;;;;-0.83;100.00;102999.84;5269739;28;20023;-72
2024/01/08 08:31:08;;;;;;;19.52;7.40;;;;;;;-0.76;100.00;103000.53;5264934;28;20020;-73
2024/01/08 08:33:41;;;;;;;20.30;8.27;;;;;;;-0.77;100.00;103008.47;5267076;28;20030;-73
2024/01/08 08:36:12;;;;;;;19.75;8.55;;;;;;;-0.69;100.00;103007.38;5264358;28;20107;-72
2024/01/08 08:38:42;;;;;;;21.52;9.75;;;;;;;-0.66;100.00;103014.31;5266607;28;20027;-72
2024/01/08 08:41:13;;;;;;;18.50;9.18;;;;;;;-0.58;100.00;103007.09;5263600;28;20094;-73
2024/01/08 08:43:43;;;;;;;19.48;8.70;;;;;;;-0.56;100.00;103007.91;5265094;28;20612;-73
2024/01/08 08:46:15;;;;;;;19.65;9.35;;;;;;;-0.59;100.00;103014.13;5265611;28;20027;-71
2024/01/08 08:48:46;;;;;;;20.88;9.38;;;;;;;-0.58;100.00;103007.09;5266635;28;20039;-72
2024/01/08 08:51:16;;;;;;;21.48;9.00;;;;;;;-0.58;100.00;103002.69;5261507;28;20489;-73
2024/01/08 08:53:47;;;;;;;23.77;9.90;;;;;;;-0.50;100.00;103005.13;5262601;28;20034;-73
2024/01/08 08:56:17;;;;;;;25.80;9.15;;;;;;;-0.54;100.00;103003.47;5262421;28;20107;-73
2024/01/08 08:58:48;;;;;;;21.55;9.35;;;;;;;-0.55;100.00;103005.25;5268949;28;20271;-73
2024/01/08 09:01:18;;;;;;;21.08;9.65;;;;;;;-0.59;100.00;103003.59;5264383;28;20657;-72
2024/01/08 09:03:49;;;;;;;19.60;9.10;;;;;;;-0.55;100.00;103005.25;5265290;28;20359;-73
2024/01/08 09:06:23;;;;;;;24.85;9.52;;;;;;;-0.48;100.00;103013.84;5263779;28;20408;-73
2024/01/08 09:08:54;;;;;;;23.50;9.65;;;;;;;-0.50;100.00;103009.50;5263997;28;20044;-73
2024/01/08 09:11:24;;;;;;;21.83;9.45;;;;;;;-0.43;100.00;103011.06;5266951;28;20032;-72
2024/01/08 09:13:55;;;;;;;19.05;9.45;;;;;;;-0.44;100.00;103015.50;5266276;28;20034;-73
2024/01/08 09:16:26;;;;;;;22.00;9.48;;;;;;;-0.47;100.00;103005.00;5268347;28;20043;-73
2024/01/08 09:18:56;;;;;;;20.63;9.20;;;;;;;-0.45;100.00;103016.41;5266421;28;20029;-73
2024/01/08 09:21:27;;;;;;;19.13;9.18;;;;;;;-0.46;100.00;103012.00;5267355;28;20024;-73
2024/01/08 09:23:57;;;;;;;23.80;10.02;;;;;;;-0.42;100.00;103010.16;5271147;28;20023;-73
2024/01/08 09:26:28;;;;;;;25.48;10.52;;;;;;;-0.35;100.00;103015.25;5268693;28;20039;-73
2024/01/08 09:28:58;;;;;;;20.20;8.95;;;;;;;-0.32;100.00;103019.53;5269040;28;20122;-72
2024/01/08 09:31:29;;;;;;;25.40;10.40;;;;;;;-0.30;100.00;103013.34;5265151;28;20106;-73
2024/01/08 09:33:59;;;;;;;22.95;10.15;;;;;;;-0.34;100.00;103011.69;5269804;28;20028;-73
2024/01/08 09:36:30;;;;;;;19.23;9.18;;;;;;;-0.28;100.00;103019.41;5270772;28;20044;-73
2024/01/08 09:39:00;;;;;;;22.83;9.20;;;;;;;-0.37;100.00;103017.03;5268472;28;20020;-73
2024/01/08 09:41:32;;;;;;;20.38;9.38;;;;;;;-0.27;100.00;103020.28;5268961;28;20034;-73
2024/01/08 09:44:03;;;;;;;20.50;9.82;;;;;;;-0.26;100.00;103016.72;5266658;28;20020;-73
2024/01/08 09:46:41;;;;;;;24.38;10.02;;;;;;;-0.28;100.00;103021.19;5255502;28;20047;-73
2024/01/08 09:49:12;;;;;;;26.77;10.93;;;;;;;-0.27;100.00;103023.78;5264533;28;20546;-73
2024/01/08 09:51:43;;;;;;;26.38;10.80;;;;;;;-0.28;100.00;103021.19;5262872;28;20055;-73
2024/01/08 09:54:18;;;;;;;27.88;11.40;;;;;;;-0.20;100.00;103028.88;5262153;28;20070;-73
2024/01/08 09:56:52;;;;;;;21.88;10.45;;;;;;;-0.12;100.00;103030.41;5265553;28;20023;-73
2024/01/08 09:59:23;;;;;;;23.08;11.63;;;;;;;-0.08;100.00;103028.53;5268258;28;20039;-73
2024/01/08 10:01:56;;;;;;;26.90;11.07;;;;;;;-0.07;100.00;103030.28;5259739;28;20042;-71
2024/01/08 10:04:26;;;;;;;25.13;12.07;;;;;;;-0.04;100.00;103025.78;5265190;28;20659;-73
2024/01/08 10:07:07;;;;;;;25.40;10.95;;;;;;;0.03;100.00;103020.31;5264695;28;20035;-73
2024/01/08 10:09:38;;;;;;;24.10;11.00;;;;;;;0.14;100.00;103023.50;5265735;28;20031;-73
2024/01/08 10:12:10;;;;;;;21.27;10.27;;;;;;;0.29;100.00;103015.09;5265227;28;20055;-72
2024/01/08 10:14:41;;;;;;;24.15;11.05;;;;;;;0.27;100.00;103009.03;5262771;28;20025;-73
2024/01/08 10:17:14;;;;;;;23.30;9.95;;;;;;;0.27;100.00;103010.78;5265662;28;20035;-73
2024/01/08 10:19:45;;;;;;;25.58;11.25;;;;;;;0.24;100.00;103009.09;5268292;28;20016;-73
2024/01/08 10:22:15;;;;;;;26.48;11.10;;;;;;;0.35;100.00;103014.03;5264032;28;20631;-73
2024/01/08 10:24:46;;;;;;;22.88;10.48;;;;;;;0.34;100.00;103007.03;5268362;28;20015;-73
2024/01/08 10:27:17;;;;;;;23.13;10.35;;;;;;;0.35;100.00;103001.75;5266768;28;20035;-72
2024/01/08 10:29:48;;;;;;;21.90;11.20;;;;;;;0.41;100.00;102998.03;5266982;28;20666;-73
2024/01/08 10:32:19;;;;;;;23.95;10.40;;;;;;;0.36;100.00;102992.03;5266467;28;20099;-73
2024/01/08 10:34:51;;;;;;;21.73;10.90;;;;;;;0.36;100.00;102997.31;5265247;28;20086;-73
2024/01/08 10:37:22;;;;;;;26.38;10.50;;;;;;;0.28;100.00;102992.25;5264343;28;20542;-72
2024/01/08 10:39:54;;;;;;;21.77;11.00;;;;;;;0.29;100.00;102993.13;5267692;28;20020;-73
2024/01/08 10:42:25;;;;;;;25.92;11.77;;;;;;;0.21;100.00;102994.22;5266063;28;20077;-73
2024/01/08 10:44:55;;;;;;;21.40;10.13;;;;;;;0.16;100.00;102990.88;5265406;28;20023;-73
2024/01/08 10:47:29;;;;;;;21.30;9.85;;;;;;;0.11;100.00;102991.94;5266463;28;20039;-73
2024/01/08 10:50:05;;;;;;;21.25;10.80;;;;;;;0.08;100.00;102984.09;5265749;28;20504;-72
2024/01/08 10:52:42;;;;;;;20.35;10.20;;;;;;;0.13;100.00;102979.53;5263625;28;20023;-73
2024/01/08 10:55:15;;;;;;;22.65;10.35;;;;;;;0.11;100.00;102990.16;5261700;28;20032;-72
2024/01/08 10:57:53;;;;;;;21.20;9.45;;;;;;;0.27;100.00;102976.47;5262947;28;20016;-73
2024/01/08 11:00:26;;;;;;;25.15;9.27;;;;;;;0.24;100.00;102980.91;5267267;28;20028;-73
2024/01/08 11:02:57;;;;;;;18.95;9.27;;;;;;;0.29;100.00;102987.84;5265790;28;20032;-73
2024/01/08 11:05:31;;;;;;;20.15;9.88;;;;;;;0.29;100.00;102977.28;5264549;28;20020;-73
2024/01/08 11:08:03;;;;;;;20.05;9.00;;;;;;;0.31;100.00;102980.75;5266297;28;20024;-73
2024/01/08 11:10:33;;;;;;;16.58;8.10;;;;;;;0.21;100.00;102983.69;5269590;28;20033;-73
2024/01/08 11:13:04;;;;;;;18.20;8.48;;;;;;;0.22;100.00;102980.13;5263492;28;20028;-73
2024/01/08 11:15:36;;;;;;;16.10;8.20;;;;;;;0.28;100.00;102983.47;5266239;28;20028;-72
2024/01/08 11:18:24;;;;;;;15.02;8.07;;;;;;;0.27;100.00;102972.06;5261096;28;20028;-72
2024/01/08 11:20:56;;;;;;;16.27;7.30;;;;;;;0.19;100.00;102981.97;5265454;28;20023;-73
2024/01/08 11:23:38;;;;;;;16.08;7.85;;;;;;;0.31;100.00;102978.13;5266101;28;20119;-72
2024/01/08 11:26:17;;;;;;;18.45;8.73;;;;;;;0.31;100.00;102978.13;5260966;28;20031;-73
2024/01/08 11:29:09;;;;;;;17.15;7.13;;;;;;;0.33;100.00;102971.84;5266641;28;20027;-73
2024/01/08 11:31:48;;;;;;;17.50;8.40;;;;;;;0.34;100.00;102964.78;5268645;28;20115;-73